Memorial Village's Hourly Summary for Saturday, May 12, 2018
Hour Temp
(f)
RH
(%)
Solar Rad.
(MJ/m2)
Rainfall
(in)
Wind
(mph)
5/12/2018 12:00 AM 76 83 0 0 0.53
5/12/2018 1:00 AM 75 84 0 0 0.47
5/12/2018 2:00 AM 75 86 0 0 0.01
5/12/2018 3:00 AM 75 87 0 0 0.18
5/12/2018 4:00 AM 74 87 0 0 0.19
5/12/2018 5:00 AM 74 90 0 0 0.13
5/12/2018 6:00 AM 73 90 0.02 0 0.09
5/12/2018 7:00 AM 74 83 0.15 0 0.47
5/12/2018 8:00 AM 77 76 0.63 0 1.39
5/12/2018 9:00 AM 80 68 1.08 0 1.86
5/12/2018 10:00 AM 82 60 1.41 0 1.69
5/12/2018 11:00 AM 86 54 2.91 0 2.19
5/12/2018 12:00 PM 87 49 3.02 0 2.39
5/12/2018 1:00 PM 89 47 3.05 0 2.64
5/12/2018 2:00 PM 89 47 2.68 0 2.29
5/12/2018 3:00 PM 89 47 1.81 0 2.2
5/12/2018 4:00 PM 88 49 1.71 0 2.38
5/12/2018 5:00 PM 87 50 1.24 0 2.09
5/12/2018 6:00 PM 86 54 0.82 0 1.64
5/12/2018 7:00 PM 83 59 0.12 0 1.5
5/12/2018 8:00 PM 80 67 0 0 1.44
5/12/2018 9:00 PM 78 74 0 0 1.09
5/12/2018 10:00 PM 77 79 0 0 0.95
5/12/2018 11:00 PM 76 84 0 0 0.55
Data Summary 80 68 20.65 0.00 1.27